Terminal Aerodrome Forecast
Issued by NWS Milwaukee/Sullivan, WI

Home | Current Version | Previous Version | Text Only | Print | Product List | Glossary On
Versions: 1 2 3 4 5 6 7 8 9 10 11 12 13 14 15 16 17 18 19 20 21 22 23 24 25 26 27 28 29 30 31 32
000
FTUS43 KMKX 242348
TAFMSN
TAF
KMSN 242348Z 2500/2524 10004KT P6SM OVC015
      TEMPO 2502/2503 6SM -RASN
     FM250300 09005KT 2SM -SN OVC006
     FM250600 10007KT 3SM -SN OVC003
     FM251200 08008KT 1 1/2SM -SN OVC003
     FM251800 06006KT 3SM -SN OVC003
     FM252000 04006KT 1 1/2SM -SN OVC003
     FM252200 02006KT 1SM -SN OVC008=

USA.gov is the U.S. government's official web portal to all federal, state and local government web resources and services.